Hlavní strana
METAR-TAF:

METAR-TAF

Letiště :

Letiště Kagošima

Kagošima, Japonsko

zeměpisná šířka: 31-48N, zeměpisná délka: 130-43E, výška: 272 m

Aktuální stav počasí

Zpráva byla vytvořena před 34 minutami, v 01:00 UTC
Severoseverozápadní vítr 6 kt, proměnlivý mezi severozápadním a severoseverovýchodním
Teplota 9°C
Vlhkost vzduchu 61%
Tlak 1029 hPa
Viditelnost 10 km a více
Skoro jasno ve výšce 3000 ft
Polojasno ve výšce 12000 ft
Oblačno až skoro zataženo

METAR: RJFK 200100Z 34006KT 320V030 9999 FEW030 SCT120 BKN/// 09/02 Q1029 RMK 1CU030 3AC120 A3040 VOLCANIC ASH CLOUD SE-S

Čas: 10:34 (01:34 UTC)

Předpověď počasí

Zpráva byla vytvořena před 2 hodinami a 24 minutami, v 23:10 UTC
Předpověď platná od 20 v 00 UTC do 21 v 06 UTC
Severozápadní vítr 8 kt
Viditelnost 10 km a více
Skoro jasno ve výšce 3000 ft
Změna
od 20 v 21 UTC do 21 v 00 UTC
Jihovýchodní vítr 6 kt

TAF: RJFK 192310Z 2000/2106 32008KT 9999 FEW030 BECMG 2021/2100 14006KT

Stav a předpovědi počasí z více než 4 000 letišť (zprávy METAR a TAF).

Červené a žluté tečky na mapě představují dostupné meteorologické stanice.

Když kurzor umístíte na tečku, zobrazí se název stanice.

Pak kliknutím zobrazíte stav a předpověď počasí.

Chcete-li změnit mapu, kliknutím na zelené tlačítko se znaménkem +mapu přiblížíte, kliknutím na zelené tlačítko se znaménkem – mapu oddálíte a kliknutím na zelené šipky přejdete na sousední mapy.


METAR-TAF: